MiSS Sarah — WDE9595 — position and weather

sailwx.info

Track history (hours):
 
Tides and Currents Weather Stations Pressure Air Temp Water Temp Dewpoint Dewpoint Depression Visibility Wind Speed Wind Dir Waves Ship Positions

MiSS Sarah

Owner: Higman Barge Lines, Inc, Orange, TX. More information available from US FCC via Universal Licensing System and Coast Guard Vessel Documentation Center.

Last reported at 2014-Nov-08 21:12 UTC. Time now 2014-Nov-24 15:11 UTC.
Position N 29°26' W 094°42'.
Warning: this ship's position is 15 days out of date.

Length 24 m; draft 2.6 m.

Type: Towing. MMSI: 367419040.

Date/timePositionNaut miles runAvg speedWind from/ knotsBaromVisibWave heightAir tempDewpointWater temp
2014-Nov-08 21:12N 29°26' W 094°42'4 4.2
2014-Nov-08 20:11N 29°23' W 094°46'3 3.4
2014-Nov-08 19:25N 29°24' W 094°49'6 7.5
2014-Nov-08 18:33N 29°30' W 094°52'7 6.7
2014-Nov-08 17:33N 29°35' W 094°56'6 5.9
2014-Nov-08 16:33N 29°41' W 094°59'5 5.4
2014-Nov-08 15:32N 29°44' W 095°03'4 3.8
2014-Nov-08 14:29N 29°44' W 095°08'0 0.2
2014-Nov-08 13:33N 29°44' W 095°08'0 0.3
2014-Nov-08 12:16N 29°44' W 095°09'5 0.3
2014-Nov-07 17:17N 29°43' W 095°14'0 0.1
2014-Nov-07 16:33N 29°43' W 095°14'0 0.1
2014-Nov-07 15:33N 29°43' W 095°14'0 0.0
2014-Nov-07 14:31N 29°43' W 095°14'0 0.0
2014-Nov-07 13:33N 29°43' W 095°14'1 0.1
2014-Nov-06 23:28N 29°44' W 095°14'5 5.5
2014-Nov-06 22:33N 29°44' W 095°08'2 1.9
2014-Nov-06 21:31N 29°46' W 095°07'0 0.0
2014-Nov-06 06:12N 29°46' W 095°07'0 0.0
2014-Nov-05 20:18N 29°46' W 095°07'1 1.4
2014-Nov-05 19:33N 29°45' W 095°06'2 2.2
2014-Nov-05 18:33N 29°44' W 095°08'0 0.0
2014-Nov-05 11:33N 29°44' W 095°08'0 0.0
2014-Nov-05 10:26N 29°44' W 095°08'0 0.0
2014-Nov-05 09:20N 29°44' W 095°08'0 0.0
2014-Nov-05 00:22N 29°44' W 095°08'0 0.0
2014-Nov-04 21:18N 29°44' W 095°08'2 3.2
2014-Nov-04 20:33N 29°45' W 095°06'2 1.5
2014-Nov-04 19:32N 29°47' W 095°05'0 0.0
2014-Nov-04 18:33N 29°47' W 095°05'0 0.0
2014-Nov-04 17:33N 29°47' W 095°05'0 0.0
2014-Nov-04 16:33N 29°47' W 095°05'0 0.0
2014-Nov-04 15:33N 29°47' W 095°05'0 0.0
2014-Nov-04 14:33N 29°47' W 095°05'0 0.0
2014-Nov-04 13:33N 29°47' W 095°05'0 0.0
2014-Nov-04 12:33N 29°47' W 095°05'0 0.0
2014-Nov-04 11:33N 29°47' W 095°05'0 0.0
2014-Nov-04 10:33N 29°47' W 095°05'0 0.0
2014-Nov-04 09:33N 29°47' W 095°05'0 0.0
2014-Nov-04 08:33N 29°47' W 095°05'0 0.0
2014-Nov-04 07:33N 29°47' W 095°05'0 0.0
2014-Nov-04 06:33N 29°47' W 095°05'0 0.1
2014-Nov-04 05:33N 29°47' W 095°05'0 0.0
2014-Nov-04 04:33N 29°47' W 095°05'0 0.0
2014-Nov-04 03:33N 29°47' W 095°05'0 0.0
2014-Nov-04 02:33N 29°47' W 095°05'0 0.0
2014-Nov-04 01:34N 29°47' W 095°05'3 2.5
2014-Nov-04 00:33N 29°45' W 095°06'2 2.2
2014-Nov-03 23:32N 29°46' W 095°05'2 2.4
2014-Nov-03 22:33N 29°45' W 095°07'3 2.5
2014-Nov-03 21:31N 29°47' W 095°05'0 0.0
2014-Nov-03 20:33N 29°47' W 095°05'0 0.0
2014-Nov-03 19:28N 29°47' W 095°05'0 0.1
2014-Nov-03 19:09N 29°47' W 095°05'0 0.0
2014-Nov-03 18:32N 29°47' W 095°05'0 0.0
2014-Nov-03 18:12N 29°47' W 095°05'0 0.0
2014-Nov-03 17:50N 29°47' W 095°05'0 0.0
2014-Nov-03 17:33N 29°47' W 095°05'0 0.0
2014-Nov-03 16:33N 29°47' W 095°05'0 0.0
2014-Nov-03 14:33N 29°47' W 095°05'0 0.0
2014-Nov-03 13:33N 29°47' W 095°05'0 0.0
2014-Nov-03 12:33N 29°47' W 095°05'0 0.0
2014-Nov-03 11:33N 29°47' W 095°05'0 0.0
2014-Nov-03 10:33N 29°47' W 095°05'0 0.0
2014-Nov-03 09:33N 29°47' W 095°05'0 0.0
2014-Nov-03 08:33N 29°47' W 095°05'0 0.0
2014-Nov-03 07:33N 29°47' W 095°05'0 0.0
2014-Nov-03 06:33N 29°47' W 095°05'0 0.0
2014-Nov-03 05:33N 29°47' W 095°05'0 0.0
2014-Nov-03 04:33N 29°47' W 095°05'0 0.0
2014-Nov-03 03:33N 29°47' W 095°05'0 0.0
2014-Nov-03 02:33N 29°47' W 095°05'0 0.0
2014-Nov-03 01:33N 29°47' W 095°05'0 0.0
2014-Nov-03 00:33N 29°47' W 095°05'0 0.0
2014-Nov-02 23:33N 29°47' W 095°05'0 0.0
2014-Nov-02 22:33N 29°47' W 095°05'0 0.0
2014-Nov-02 21:33N 29°47' W 095°05'0 0.0
2014-Nov-02 20:33N 29°47' W 095°05'0 0.0
2014-Nov-02 19:33N 29°47' W 095°05'0 0.0
2014-Nov-02 18:33N 29°47' W 095°05'0 0.0
2014-Nov-02 17:33N 29°47' W 095°05'0 0.0
2014-Nov-02 16:33N 29°47' W 095°05'0 0.0
2014-Nov-02 15:33N 29°47' W 095°05'0 0.0
2014-Nov-02 14:33N 29°47' W 095°05'0 0.0
2014-Nov-02 13:33N 29°47' W 095°05'0 0.0
2014-Nov-02 12:33N 29°47' W 095°05'0 0.0
2014-Nov-02 04:32N 29°47' W 095°05'0 0.0
2014-Nov-02 03:33N 29°47' W 095°05'0 0.0
2014-Nov-02 02:33N 29°47' W 095°05'0 0.0
2014-Nov-02 01:33N 29°47' W 095°05'0 0.0
2014-Nov-02 00:33N 29°47' W 095°05'0 0.0
2014-Nov-01 23:33N 29°47' W 095°05'0 0.0
2014-Nov-01 22:33N 29°47' W 095°05'0 0.0
2014-Nov-01 21:31N 29°47' W 095°05'0 0.0
2014-Nov-01 20:32N 29°47' W 095°05'0 0.0
2014-Nov-01 19:33N 29°47' W 095°05'0 0.0
2014-Nov-01 18:23N 29°47' W 095°05'0 0.0
2014-Nov-01 17:22N 29°47' W 095°05'0 0.0
2014-Nov-01 16:33N 29°47' W 095°05'0 0.0
2014-Nov-01 15:31N 29°47' W 095°05'0 0.0
2014-Nov-01 14:33N 29°47' W 095°05'0 0.0
2014-Nov-01 13:32N 29°47' W 095°05'0 0.0
2014-Nov-01 12:33N 29°47' W 095°05'0 0.0
2014-Nov-01 11:26N 29°47' W 095°05'4 0.2
2014-Oct-31 15:33N 29°44' W 095°08'0 0.0
2014-Oct-31 10:33N 29°44' W 095°08'0 0.0
2014-Oct-31 09:33N 29°44' W 095°08'0 0.0
2014-Oct-31 08:33N 29°44' W 095°08'0 0.0
2014-Oct-31 07:33N 29°44' W 095°08'0 0.0
2014-Oct-31 06:33N 29°44' W 095°08'0 0.0
2014-Oct-31 05:24N 29°44' W 095°08'0 0.0
2014-Oct-31 04:33N 29°44' W 095°08'0 0.0
2014-Oct-31 03:33N 29°44' W 095°08'0 0.0
2014-Oct-31 02:33N 29°44' W 095°08'0 0.0
2014-Oct-31 01:33N 29°44' W 095°08'0 0.0
2014-Oct-31 00:33N 29°44' W 095°08'0 0.0
2014-Oct-30 23:33N 29°44' W 095°08'0 0.0
2014-Oct-30 21:33N 29°44' W 095°08'0 0.1
2014-Oct-30 20:27N 29°44' W 095°08'0 0.1
2014-Oct-30 19:16N 29°44' W 095°08'0 0.2
2014-Oct-30 18:32N 29°44' W 095°08'0 0.2
2014-Oct-30 17:31N 29°44' W 095°08'0 0.0
2014-Oct-30 13:04N 29°44' W 095°08'0 0.0
2014-Oct-30 12:32N 29°44' W 095°08'0 0.0
2014-Oct-30 11:33N 29°44' W 095°08'0 0.0
2014-Oct-30 10:33N 29°44' W 095°08'0 0.0
2014-Oct-30 09:33N 29°44' W 095°08'0 0.0
2014-Oct-30 08:33N 29°44' W 095°08'0 0.0
2014-Oct-30 07:33N 29°44' W 095°08'0 0.0
2014-Oct-30 06:33N 29°44' W 095°08'0 0.0
2014-Oct-30 05:33N 29°44' W 095°08'0 0.0
2014-Oct-30 02:13N 29°44' W 095°08'  
Track history (hours):
 
Tides and Currents Weather Stations Pressure Air Temp Water Temp Dewpoint Dewpoint Depression Visibility Wind Speed Wind Dir Waves Ship Positions

MiSS Sarah

Owner: Higman Barge Lines, Inc, Orange, TX. More information available from US FCC via Universal Licensing System and Coast Guard Vessel Documentation Center.

Last reported at 2014-Nov-08 21:12 UTC. Time now 2014-Nov-24 15:11 UTC.
Position N 29°26' W 094°42'.
Warning: this ship's position is 15 days out of date.

Length 24 m; draft 2.6 m.

Type: Towing. MMSI: 367419040.

Date/timePositionNaut miles runAvg speedWind from/ knotsBaromVisibWave heightAir tempDewpointWater temp
2014-Nov-08 21:12N 29°26' W 094°42'4 4.2
2014-Nov-08 20:11N 29°23' W 094°46'3 3.4
2014-Nov-08 19:25N 29°24' W 094°49'6 7.5
2014-Nov-08 18:33N 29°30' W 094°52'7 6.7
2014-Nov-08 17:33N 29°35' W 094°56'6 5.9
2014-Nov-08 16:33N 29°41' W 094°59'5 5.4
2014-Nov-08 15:32N 29°44' W 095°03'4 3.8
2014-Nov-08 14:29N 29°44' W 095°08'0 0.2
2014-Nov-08 13:33N 29°44' W 095°08'0 0.3
2014-Nov-08 12:16N 29°44' W 095°09'5 0.3
2014-Nov-07 17:17N 29°43' W 095°14'0 0.1
2014-Nov-07 16:33N 29°43' W 095°14'0 0.1
2014-Nov-07 15:33N 29°43' W 095°14'0 0.0
2014-Nov-07 14:31N 29°43' W 095°14'0 0.0
2014-Nov-07 13:33N 29°43' W 095°14'1 0.1
2014-Nov-06 23:28N 29°44' W 095°14'5 5.5
2014-Nov-06 22:33N 29°44' W 095°08'2 1.9
2014-Nov-06 21:31N 29°46' W 095°07'0 0.0
2014-Nov-06 06:12N 29°46' W 095°07'0 0.0
2014-Nov-05 20:18N 29°46' W 095°07'1 1.4
2014-Nov-05 19:33N 29°45' W 095°06'2 2.2
2014-Nov-05 18:33N 29°44' W 095°08'0 0.0
2014-Nov-05 11:33N 29°44' W 095°08'0 0.0
2014-Nov-05 10:26N 29°44' W 095°08'0 0.0
2014-Nov-05 09:20N 29°44' W 095°08'0 0.0
2014-Nov-05 00:22N 29°44' W 095°08'0 0.0
2014-Nov-04 21:18N 29°44' W 095°08'2 3.2
2014-Nov-04 20:33N 29°45' W 095°06'2 1.5
2014-Nov-04 19:32N 29°47' W 095°05'0 0.0
2014-Nov-04 18:33N 29°47' W 095°05'0 0.0
2014-Nov-04 17:33N 29°47' W 095°05'0 0.0
2014-Nov-04 16:33N 29°47' W 095°05'0 0.0
2014-Nov-04 15:33N 29°47' W 095°05'0 0.0
2014-Nov-04 14:33N 29°47' W 095°05'0 0.0
2014-Nov-04 13:33N 29°47' W 095°05'0 0.0
2014-Nov-04 12:33N 29°47' W 095°05'0 0.0
2014-Nov-04 11:33N 29°47' W 095°05'0 0.0
2014-Nov-04 10:33N 29°47' W 095°05'0 0.0
2014-Nov-04 09:33N 29°47' W 095°05'0 0.0
2014-Nov-04 08:33N 29°47' W 095°05'0 0.0
2014-Nov-04 07:33N 29°47' W 095°05'0 0.0
2014-Nov-04 06:33N 29°47' W 095°05'0 0.1
2014-Nov-04 05:33N 29°47' W 095°05'0 0.0
2014-Nov-04 04:33N 29°47' W 095°05'0 0.0
2014-Nov-04 03:33N 29°47' W 095°05'0 0.0
2014-Nov-04 02:33N 29°47' W 095°05'0 0.0
2014-Nov-04 01:34N 29°47' W 095°05'3 2.5
2014-Nov-04 00:33N 29°45' W 095°06'2 2.2
2014-Nov-03 23:32N 29°46' W 095°05'2 2.4
2014-Nov-03 22:33N 29°45' W 095°07'3 2.5
2014-Nov-03 21:31N 29°47' W 095°05'0 0.0
2014-Nov-03 20:33N 29°47' W 095°05'0 0.0
2014-Nov-03 19:28N 29°47' W 095°05'0 0.1
2014-Nov-03 19:09N 29°47' W 095°05'0 0.0
2014-Nov-03 18:32N 29°47' W 095°05'0 0.0
2014-Nov-03 18:12N 29°47' W 095°05'0 0.0
2014-Nov-03 17:50N 29°47' W 095°05'0 0.0
2014-Nov-03 17:33N 29°47' W 095°05'0 0.0
2014-Nov-03 16:33N 29°47' W 095°05'0 0.0
2014-Nov-03 14:33N 29°47' W 095°05'0 0.0
2014-Nov-03 13:33N 29°47' W 095°05'0 0.0
2014-Nov-03 12:33N 29°47' W 095°05'0 0.0
2014-Nov-03 11:33N 29°47' W 095°05'0 0.0
2014-Nov-03 10:33N 29°47' W 095°05'0 0.0
2014-Nov-03 09:33N 29°47' W 095°05'0 0.0
2014-Nov-03 08:33N 29°47' W 095°05'0 0.0
2014-Nov-03 07:33N 29°47' W 095°05'0 0.0
2014-Nov-03 06:33N 29°47' W 095°05'0 0.0
2014-Nov-03 05:33N 29°47' W 095°05'0 0.0
2014-Nov-03 04:33N 29°47' W 095°05'0 0.0
2014-Nov-03 03:33N 29°47' W 095°05'0 0.0
2014-Nov-03 02:33N 29°47' W 095°05'0 0.0
2014-Nov-03 01:33N 29°47' W 095°05'0 0.0
2014-Nov-03 00:33N 29°47' W 095°05'0 0.0
2014-Nov-02 23:33N 29°47' W 095°05'0 0.0
2014-Nov-02 22:33N 29°47' W 095°05'0 0.0
2014-Nov-02 21:33N 29°47' W 095°05'0 0.0
2014-Nov-02 20:33N 29°47' W 095°05'0 0.0
2014-Nov-02 19:33N 29°47' W 095°05'0 0.0
2014-Nov-02 18:33N 29°47' W 095°05'0 0.0
2014-Nov-02 17:33N 29°47' W 095°05'0 0.0
2014-Nov-02 16:33N 29°47' W 095°05'0 0.0
2014-Nov-02 15:33N 29°47' W 095°05'0 0.0
2014-Nov-02 14:33N 29°47' W 095°05'0 0.0
2014-Nov-02 13:33N 29°47' W 095°05'0 0.0
2014-Nov-02 12:33N 29°47' W 095°05'0 0.0
2014-Nov-02 04:32N 29°47' W 095°05'0 0.0
2014-Nov-02 03:33N 29°47' W 095°05'0 0.0
2014-Nov-02 02:33N 29°47' W 095°05'0 0.0
2014-Nov-02 01:33N 29°47' W 095°05'0 0.0
2014-Nov-02 00:33N 29°47' W 095°05'0 0.0
2014-Nov-01 23:33N 29°47' W 095°05'0 0.0
2014-Nov-01 22:33N 29°47' W 095°05'0 0.0
2014-Nov-01 21:31N 29°47' W 095°05'0 0.0
2014-Nov-01 20:32N 29°47' W 095°05'0 0.0
2014-Nov-01 19:33N 29°47' W 095°05'0 0.0
2014-Nov-01 18:23N 29°47' W 095°05'0 0.0
2014-Nov-01 17:22N 29°47' W 095°05'0 0.0
2014-Nov-01 16:33N 29°47' W 095°05'0 0.0
2014-Nov-01 15:31N 29°47' W 095°05'0 0.0
2014-Nov-01 14:33N 29°47' W 095°05'0 0.0
2014-Nov-01 13:32N 29°47' W 095°05'0 0.0
2014-Nov-01 12:33N 29°47' W 095°05'0 0.0
2014-Nov-01 11:26N 29°47' W 095°05'4 0.2
2014-Oct-31 15:33N 29°44' W 095°08'0 0.0
2014-Oct-31 10:33N 29°44' W 095°08'0 0.0
2014-Oct-31 09:33N 29°44' W 095°08'0 0.0
2014-Oct-31 08:33N 29°44' W 095°08'0 0.0
2014-Oct-31 07:33N 29°44' W 095°08'0 0.0
2014-Oct-31 06:33N 29°44' W 095°08'0 0.0
2014-Oct-31 05:24N 29°44' W 095°08'0 0.0
2014-Oct-31 04:33N 29°44' W 095°08'0 0.0
2014-Oct-31 03:33N 29°44' W 095°08'0 0.0
2014-Oct-31 02:33N 29°44' W 095°08'0 0.0
2014-Oct-31 01:33N 29°44' W 095°08'0 0.0
2014-Oct-31 00:33N 29°44' W 095°08'0 0.0
2014-Oct-30 23:33N 29°44' W 095°08'0 0.0
2014-Oct-30 21:33N 29°44' W 095°08'0 0.1
2014-Oct-30 20:27N 29°44' W 095°08'0 0.1
2014-Oct-30 19:16N 29°44' W 095°08'0 0.2
2014-Oct-30 18:32N 29°44' W 095°08'0 0.2
2014-Oct-30 17:31N 29°44' W 095°08'0 0.0
2014-Oct-30 13:04N 29°44' W 095°08'0 0.0
2014-Oct-30 12:32N 29°44' W 095°08'0 0.0
2014-Oct-30 11:33N 29°44' W 095°08'0 0.0
2014-Oct-30 10:33N 29°44' W 095°08'0 0.0
2014-Oct-30 09:33N 29°44' W 095°08'0 0.0
2014-Oct-30 08:33N 29°44' W 095°08'0 0.0
2014-Oct-30 07:33N 29°44' W 095°08'0 0.0
2014-Oct-30 06:33N 29°44' W 095°08'0 0.0
2014-Oct-30 05:33N 29°44' W 095°08'0 0.0
2014-Oct-30 02:13N 29°44' W 095°08'  

Dump ship's entire track history